sensor_id;sensor_type;location;lat;lon;timestamp;P1;durP1;ratioP1;P2;durP2;ratioP2
4698;SDS011;33708;49.466;11.176;2023-08-12T00:01:42;6.60;;;4.87;;
4698;SDS011;33708;49.466;11.176;2023-08-12T00:04:07;10.90;;;4.50;;
4698;SDS011;33708;49.466;11.176;2023-08-12T00:06:33;9.07;;;4.40;;
4698;SDS011;33708;49.466;11.176;2023-08-12T00:08:59;10.07;;;4.33;;
4698;SDS011;33708;49.466;11.176;2023-08-12T00:11:24;9.97;;;4.53;;
4698;SDS011;33708;49.466;11.176;2023-08-12T00:13:50;9.67;;;4.50;;
4698;SDS011;33708;49.466;11.176;2023-08-12T00:16:16;13.83;;;4.63;;
4698;SDS011;33708;49.466;11.176;2023-08-12T00:18:41;13.73;;;5.03;;
4698;SDS011;33708;49.466;11.176;2023-08-12T00:21:08;18.13;;;4.70;;
4698;SDS011;33708;49.466;11.176;2023-08-12T00:23:38;11.17;;;4.70;;
4698;SDS011;33708;49.466;11.176;2023-08-12T00:26:05;9.53;;;4.00;;
4698;SDS011;33708;49.466;11.176;2023-08-12T00:28:32;10.47;;;4.33;;
4698;SDS011;33708;49.466;11.176;2023-08-12T00:30:58;13.03;;;4.50;;
4698;SDS011;33708;49.466;11.176;2023-08-12T00:33:23;8.70;;;4.63;;
4698;SDS011;33708;49.466;11.176;2023-08-12T00:35:49;14.73;;;4.50;;
4698;SDS011;33708;49.466;11.176;2023-08-12T00:38:15;8.17;;;4.50;;
4698;SDS011;33708;49.466;11.176;2023-08-12T00:40:40;8.17;;;4.60;;
4698;SDS011;33708;49.466;11.176;2023-08-12T00:43:06;7.80;;;4.57;;
4698;SDS011;33708;49.466;11.176;2023-08-12T00:45:32;5.97;;;4.40;;
4698;SDS011;33708;49.466;11.176;2023-08-12T00:47:58;7.63;;;5.00;;
4698;SDS011;33708;49.466;11.176;2023-08-12T00:50:24;11.83;;;5.10;;
4698;SDS011;33708;49.466;11.176;2023-08-12T00:52:50;7.87;;;5.13;;
4698;SDS011;33708;49.466;11.176;2023-08-12T00:55:16;9.40;;;5.10;;
4698;SDS011;33708;49.466;11.176;2023-08-12T00:57:43;11.93;;;5.10;;
4698;SDS011;33708;49.466;11.176;2023-08-12T01:00:08;10.10;;;5.03;;
4698;SDS011;33708;49.466;11.176;2023-08-12T01:02:35;9.57;;;5.33;;
4698;SDS011;33708;49.466;11.176;2023-08-12T01:05:00;9.10;;;5.50;;
4698;SDS011;33708;49.466;11.176;2023-08-12T01:07:26;14.60;;;4.93;;
4698;SDS011;33708;49.466;11.176;2023-08-12T01:09:52;10.63;;;5.20;;
4698;SDS011;33708;49.466;11.176;2023-08-12T01:12:25;7.87;;;5.50;;
4698;SDS011;33708;49.466;11.176;2023-08-12T01:15:05;8.53;;;5.43;;
4698;SDS011;33708;49.466;11.176;2023-08-12T01:17:34;19.33;;;4.53;;
4698;SDS011;33708;49.466;11.176;2023-08-12T01:20:03;7.60;;;4.03;;
4698;SDS011;33708;49.466;11.176;2023-08-12T01:22:37;13.97;;;5.20;;
4698;SDS011;33708;49.466;11.176;2023-08-12T01:25:05;8.40;;;4.80;;
4698;SDS011;33708;49.466;11.176;2023-08-12T01:27:33;18.00;;;4.73;;
4698;SDS011;33708;49.466;11.176;2023-08-12T01:30:00;6.10;;;4.87;;
4698;SDS011;33708;49.466;11.176;2023-08-12T01:32:36;10.93;;;5.17;;
4698;SDS011;33708;49.466;11.176;2023-08-12T01:37:39;21.13;;;5.10;;
4698;SDS011;33708;49.466;11.176;2023-08-12T01:40:05;9.07;;;5.57;;
4698;SDS011;33708;49.466;11.176;2023-08-12T01:42:34;13.93;;;6.00;;
4698;SDS011;33708;49.466;11.176;2023-08-12T01:45:01;9.47;;;4.77;;
4698;SDS011;33708;49.466;11.176;2023-08-12T01:47:27;9.33;;;4.50;;
4698;SDS011;33708;49.466;11.176;2023-08-12T01:49:53;9.30;;;4.73;;
4698;SDS011;33708;49.466;11.176;2023-08-12T01:52:19;10.60;;;4.80;;
4698;SDS011;33708;49.466;11.176;2023-08-12T01:54:45;6.70;;;5.37;;
4698;SDS011;33708;49.466;11.176;2023-08-12T01:57:10;9.30;;;5.10;;
4698;SDS011;33708;49.466;11.176;2023-08-12T01:59:36;11.93;;;5.83;;
4698;SDS011;33708;49.466;11.176;2023-08-12T02:02:02;7.57;;;6.03;;
4698;SDS011;33708;49.466;11.176;2023-08-12T02:04:28;7.93;;;5.10;;
4698;SDS011;33708;49.466;11.176;2023-08-12T02:06:54;10.53;;;5.60;;
4698;SDS011;33708;49.466;11.176;2023-08-12T02:09:20;10.37;;;5.93;;
4698;SDS011;33708;49.466;11.176;2023-08-12T02:11:46;13.00;;;6.00;;
4698;SDS011;33708;49.466;11.176;2023-08-12T02:14:11;13.80;;;7.43;;
4698;SDS011;33708;49.466;11.176;2023-08-12T02:16:37;26.17;;;7.73;;
4698;SDS011;33708;49.466;11.176;2023-08-12T02:19:02;23.43;;;8.53;;
4698;SDS011;33708;49.466;11.176;2023-08-12T02:21:28;32.57;;;9.60;;
4698;SDS011;33708;49.466;11.176;2023-08-12T02:23:54;28.60;;;8.37;;
4698;SDS011;33708;49.466;11.176;2023-08-12T02:26:19;38.33;;;8.90;;
4698;SDS011;33708;49.466;11.176;2023-08-12T02:28:45;38.53;;;9.90;;
4698;SDS011;33708;49.466;11.176;2023-08-12T02:31:11;26.77;;;8.47;;
4698;SDS011;33708;49.466;11.176;2023-08-12T02:33:36;29.37;;;8.37;;
4698;SDS011;33708;49.466;11.176;2023-08-12T02:36:02;30.23;;;8.27;;
4698;SDS011;33708;49.466;11.176;2023-08-12T02:38:28;28.00;;;8.30;;
4698;SDS011;33708;49.466;11.176;2023-08-12T02:40:53;24.27;;;8.40;;
4698;SDS011;33708;49.466;11.176;2023-08-12T02:43:20;26.93;;;7.80;;
4698;SDS011;33708;49.466;11.176;2023-08-12T02:45:46;19.83;;;7.07;;
4698;SDS011;33708;49.466;11.176;2023-08-12T02:48:12;17.13;;;6.57;;
4698;SDS011;33708;49.466;11.176;2023-08-12T02:50:38;20.47;;;6.03;;
4698;SDS011;33708;49.466;11.176;2023-08-12T02:53:04;20.57;;;6.17;;
4698;SDS011;33708;49.466;11.176;2023-08-12T02:55:30;13.23;;;5.60;;
4698;SDS011;33708;49.466;11.176;2023-08-12T02:57:59;17.57;;;6.77;;
4698;SDS011;33708;49.466;11.176;2023-08-12T03:00:26;18.67;;;5.27;;
4698;SDS011;33708;49.466;11.176;2023-08-12T03:02:52;13.47;;;5.57;;
4698;SDS011;33708;49.466;11.176;2023-08-12T03:05:18;10.53;;;4.90;;
4698;SDS011;33708;49.466;11.176;2023-08-12T03:07:44;15.20;;;5.73;;
4698;SDS011;33708;49.466;11.176;2023-08-12T03:10:10;18.27;;;5.80;;
4698;SDS011;33708;49.466;11.176;2023-08-12T03:12:36;11.37;;;5.07;;
4698;SDS011;33708;49.466;11.176;2023-08-12T03:15:02;10.77;;;5.10;;
4698;SDS011;33708;49.466;11.176;2023-08-12T03:17:28;12.47;;;4.70;;
4698;SDS011;33708;49.466;11.176;2023-08-12T03:19:54;10.70;;;4.77;;
4698;SDS011;33708;49.466;11.176;2023-08-12T03:22:21;8.10;;;4.60;;
4698;SDS011;33708;49.466;11.176;2023-08-12T03:24:47;9.93;;;5.17;;
4698;SDS011;33708;49.466;11.176;2023-08-12T03:27:14;10.67;;;4.77;;
4698;SDS011;33708;49.466;11.176;2023-08-12T03:29:39;6.70;;;4.20;;
4698;SDS011;33708;49.466;11.176;2023-08-12T03:32:05;13.00;;;4.77;;
4698;SDS011;33708;49.466;11.176;2023-08-12T03:34:30;17.53;;;6.00;;
4698;SDS011;33708;49.466;11.176;2023-08-12T03:36:56;12.43;;;5.40;;
4698;SDS011;33708;49.466;11.176;2023-08-12T03:39:21;14.43;;;5.67;;
4698;SDS011;33708;49.466;11.176;2023-08-12T03:41:47;14.83;;;5.50;;
4698;SDS011;33708;49.466;11.176;2023-08-12T03:44:15;9.07;;;5.20;;
4698;SDS011;33708;49.466;11.176;2023-08-12T03:46:41;12.73;;;5.27;;
4698;SDS011;33708;49.466;11.176;2023-08-12T03:49:06;8.10;;;5.13;;
4698;SDS011;33708;49.466;11.176;2023-08-12T03:51:32;5.77;;;4.30;;
4698;SDS011;33708;49.466;11.176;2023-08-12T03:53:58;11.47;;;4.93;;
4698;SDS011;33708;49.466;11.176;2023-08-12T03:56:24;7.53;;;4.47;;
4698;SDS011;33708;49.466;11.176;2023-08-12T03:58:49;12.13;;;5.00;;
4698;SDS011;33708;49.466;11.176;2023-08-12T04:01:16;12.70;;;4.93;;
4698;SDS011;33708;49.466;11.176;2023-08-12T04:03:42;9.03;;;4.60;;
4698;SDS011;33708;49.466;11.176;2023-08-12T04:06:07;7.47;;;4.30;;
4698;SDS011;33708;49.466;11.176;2023-08-12T04:08:33;15.77;;;4.83;;
4698;SDS011;33708;49.466;11.176;2023-08-12T04:10:59;13.10;;;5.43;;
4698;SDS011;33708;49.466;11.176;2023-08-12T04:13:25;11.43;;;6.00;;
4698;SDS011;33708;49.466;11.176;2023-08-12T04:15:51;8.73;;;4.30;;
4698;SDS011;33708;49.466;11.176;2023-08-12T04:18:18;10.27;;;5.83;;
4698;SDS011;33708;49.466;11.176;2023-08-12T04:20:48;12.17;;;5.63;;
4698;SDS011;33708;49.466;11.176;2023-08-12T04:23:14;12.07;;;4.70;;
4698;SDS011;33708;49.466;11.176;2023-08-12T04:25:42;11.67;;;4.00;;
4698;SDS011;33708;49.466;11.176;2023-08-12T04:28:09;14.13;;;4.57;;
4698;SDS011;33708;49.466;11.176;2023-08-12T04:30:35;9.13;;;5.40;;
4698;SDS011;33708;49.466;11.176;2023-08-12T04:33:00;12.23;;;3.83;;
4698;SDS011;33708;49.466;11.176;2023-08-12T04:35:26;9.50;;;4.40;;
4698;SDS011;33708;49.466;11.176;2023-08-12T04:37:51;9.07;;;4.40;;
4698;SDS011;33708;49.466;11.176;2023-08-12T04:40:17;9.40;;;3.90;;
4698;SDS011;33708;49.466;11.176;2023-08-12T04:42:43;13.43;;;4.87;;
4698;SDS011;33708;49.466;11.176;2023-08-12T04:45:08;13.37;;;4.10;;
4698;SDS011;33708;49.466;11.176;2023-08-12T04:47:35;6.43;;;3.90;;
4698;SDS011;33708;49.466;11.176;2023-08-12T04:50:01;10.77;;;4.00;;
4698;SDS011;33708;49.466;11.176;2023-08-12T04:52:27;9.60;;;3.80;;
4698;SDS011;33708;49.466;11.176;2023-08-12T04:54:53;8.43;;;3.60;;
4698;SDS011;33708;49.466;11.176;2023-08-12T04:57:19;6.70;;;4.00;;
4698;SDS011;33708;49.466;11.176;2023-08-12T04:59:44;8.03;;;3.93;;
4698;SDS011;33708;49.466;11.176;2023-08-12T05:02:10;8.27;;;3.67;;
4698;SDS011;33708;49.466;11.176;2023-08-12T05:04:36;18.20;;;3.70;;
4698;SDS011;33708;49.466;11.176;2023-08-12T05:07:02;10.87;;;5.40;;
4698;SDS011;33708;49.466;11.176;2023-08-12T05:09:27;8.10;;;5.37;;
4698;SDS011;33708;49.466;11.176;2023-08-12T05:11:53;5.93;;;4.03;;
4698;SDS011;33708;49.466;11.176;2023-08-12T05:14:18;6.43;;;4.30;;
4698;SDS011;33708;49.466;11.176;2023-08-12T05:16:44;8.70;;;4.27;;
4698;SDS011;33708;49.466;11.176;2023-08-12T05:19:09;8.00;;;4.47;;
4698;SDS011;33708;49.466;11.176;2023-08-12T05:21:35;6.50;;;3.80;;
4698;SDS011;33708;49.466;11.176;2023-08-12T05:24:00;9.80;;;4.03;;
4698;SDS011;33708;49.466;11.176;2023-08-12T05:26:26;13.10;;;4.43;;
4698;SDS011;33708;49.466;11.176;2023-08-12T05:28:52;10.13;;;4.77;;
4698;SDS011;33708;49.466;11.176;2023-08-12T05:31:17;8.90;;;3.90;;
4698;SDS011;33708;49.466;11.176;2023-08-12T05:33:43;5.60;;;4.30;;
4698;SDS011;33708;49.466;11.176;2023-08-12T05:36:09;11.87;;;4.30;;
4698;SDS011;33708;49.466;11.176;2023-08-12T05:38:34;6.63;;;4.07;;
4698;SDS011;33708;49.466;11.176;2023-08-12T05:41:00;12.00;;;3.60;;
4698;SDS011;33708;49.466;11.176;2023-08-12T05:43:25;8.13;;;3.93;;
4698;SDS011;33708;49.466;11.176;2023-08-12T05:45:51;9.43;;;3.50;;
4698;SDS011;33708;49.466;11.176;2023-08-12T05:48:17;8.80;;;3.63;;
4698;SDS011;33708;49.466;11.176;2023-08-12T05:50:43;8.80;;;4.37;;
4698;SDS011;33708;49.466;11.176;2023-08-12T05:53:08;5.60;;;3.53;;
4698;SDS011;33708;49.466;11.176;2023-08-12T05:55:34;6.37;;;3.63;;
4698;SDS011;33708;49.466;11.176;2023-08-12T05:58:00;7.10;;;3.67;;
4698;SDS011;33708;49.466;11.176;2023-08-12T06:00:26;5.90;;;3.57;;
4698;SDS011;33708;49.466;11.176;2023-08-12T06:02:52;8.30;;;3.53;;
4698;SDS011;33708;49.466;11.176;2023-08-12T06:05:18;8.50;;;4.10;;
4698;SDS011;33708;49.466;11.176;2023-08-12T06:07:44;7.80;;;3.80;;
4698;SDS011;33708;49.466;11.176;2023-08-12T06:10:12;5.03;;;3.50;;
4698;SDS011;33708;49.466;11.176;2023-08-12T06:12:37;6.43;;;3.40;;
4698;SDS011;33708;49.466;11.176;2023-08-12T06:15:03;12.17;;;3.17;;
4698;SDS011;33708;49.466;11.176;2023-08-12T06:17:29;9.00;;;3.60;;
4698;SDS011;33708;49.466;11.176;2023-08-12T06:19:55;6.20;;;3.30;;
4698;SDS011;33708;49.466;11.176;2023-08-12T06:22:20;7.30;;;3.13;;
4698;SDS011;33708;49.466;11.176;2023-08-12T06:24:46;7.30;;;3.20;;
4698;SDS011;33708;49.466;11.176;2023-08-12T06:27:11;7.53;;;3.10;;
4698;SDS011;33708;49.466;11.176;2023-08-12T06:29:37;9.13;;;3.53;;
4698;SDS011;33708;49.466;11.176;2023-08-12T06:32:03;22.03;;;4.37;;
4698;SDS011;33708;49.466;11.176;2023-08-12T06:34:28;11.43;;;3.67;;
4698;SDS011;33708;49.466;11.176;2023-08-12T06:36:54;6.73;;;3.03;;
4698;SDS011;33708;49.466;11.176;2023-08-12T06:39:19;8.43;;;4.03;;
4698;SDS011;33708;49.466;11.176;2023-08-12T06:41:45;9.37;;;3.77;;
4698;SDS011;33708;49.466;11.176;2023-08-12T06:44:11;7.77;;;3.00;;
4698;SDS011;33708;49.466;11.176;2023-08-12T06:46:36;7.40;;;3.50;;
4698;SDS011;33708;49.466;11.176;2023-08-12T06:49:02;6.03;;;3.10;;
4698;SDS011;33708;49.466;11.176;2023-08-12T06:51:27;8.10;;;3.17;;
4698;SDS011;33708;49.466;11.176;2023-08-12T06:53:53;4.27;;;2.27;;
4698;SDS011;33708;49.466;11.176;2023-08-12T06:56:18;3.80;;;2.80;;
4698;SDS011;33708;49.466;11.176;2023-08-12T06:58:44;8.13;;;2.53;;
4698;SDS011;33708;49.466;11.176;2023-08-12T07:01:10;7.10;;;2.70;;
4698;SDS011;33708;49.466;11.176;2023-08-12T07:03:35;6.93;;;2.70;;
4698;SDS011;33708;49.466;11.176;2023-08-12T07:06:01;4.00;;;2.80;;
4698;SDS011;33708;49.466;11.176;2023-08-12T07:08:26;5.00;;;2.77;;
4698;SDS011;33708;49.466;11.176;2023-08-12T07:10:52;4.20;;;2.60;;
4698;SDS011;33708;49.466;11.176;2023-08-12T07:13:18;9.50;;;3.10;;
4698;SDS011;33708;49.466;11.176;2023-08-12T07:15:43;4.00;;;2.63;;
4698;SDS011;33708;49.466;11.176;2023-08-12T07:18:09;4.70;;;2.87;;
4698;SDS011;33708;49.466;11.176;2023-08-12T07:20:35;7.77;;;3.23;;
4698;SDS011;33708;49.466;11.176;2023-08-12T07:23:00;3.67;;;2.63;;
4698;SDS011;33708;49.466;11.176;2023-08-12T07:25:26;4.50;;;3.13;;
4698;SDS011;33708;49.466;11.176;2023-08-12T07:27:51;7.40;;;2.70;;
4698;SDS011;33708;49.466;11.176;2023-08-12T07:30:17;6.60;;;2.70;;
4698;SDS011;33708;49.466;11.176;2023-08-12T07:32:43;4.43;;;3.00;;
4698;SDS011;33708;49.466;11.176;2023-08-12T07:35:08;4.03;;;2.70;;
4698;SDS011;33708;49.466;11.176;2023-08-12T07:37:34;4.13;;;2.50;;
4698;SDS011;33708;49.466;11.176;2023-08-12T07:40:00;3.53;;;2.40;;
4698;SDS011;33708;49.466;11.176;2023-08-12T07:42:26;4.47;;;2.80;;
4698;SDS011;33708;49.466;11.176;2023-08-12T07:44:51;4.70;;;2.50;;
4698;SDS011;33708;49.466;11.176;2023-08-12T07:47:17;4.43;;;2.90;;
4698;SDS011;33708;49.466;11.176;2023-08-12T07:49:43;10.53;;;2.20;;
4698;SDS011;33708;49.466;11.176;2023-08-12T07:52:09;5.87;;;2.40;;
4698;SDS011;33708;49.466;11.176;2023-08-12T07:54:35;4.53;;;2.83;;
4698;SDS011;33708;49.466;11.176;2023-08-12T07:57:01;5.30;;;2.67;;
4698;SDS011;33708;49.466;11.176;2023-08-12T07:59:26;4.63;;;2.90;;
4698;SDS011;33708;49.466;11.176;2023-08-12T08:01:52;4.30;;;2.70;;
4698;SDS011;33708;49.466;11.176;2023-08-12T08:04:17;3.27;;;2.13;;
4698;SDS011;33708;49.466;11.176;2023-08-12T08:06:43;6.93;;;2.40;;
4698;SDS011;33708;49.466;11.176;2023-08-12T08:09:09;3.90;;;2.33;;
4698;SDS011;33708;49.466;11.176;2023-08-12T08:11:35;4.70;;;2.53;;
4698;SDS011;33708;49.466;11.176;2023-08-12T08:14:01;3.70;;;2.33;;
4698;SDS011;33708;49.466;11.176;2023-08-12T08:16:26;3.77;;;2.30;;
4698;SDS011;33708;49.466;11.176;2023-08-12T08:18:52;5.00;;;2.60;;
4698;SDS011;33708;49.466;11.176;2023-08-12T08:21:18;3.53;;;2.33;;
4698;SDS011;33708;49.466;11.176;2023-08-12T08:23:43;4.27;;;2.30;;
4698;SDS011;33708;49.466;11.176;2023-08-12T08:26:10;3.73;;;2.50;;
4698;SDS011;33708;49.466;11.176;2023-08-12T08:28:37;3.10;;;2.17;;
4698;SDS011;33708;49.466;11.176;2023-08-12T08:31:03;3.70;;;2.33;;
4698;SDS011;33708;49.466;11.176;2023-08-12T08:33:29;3.40;;;2.50;;
4698;SDS011;33708;49.466;11.176;2023-08-12T08:35:55;4.90;;;2.20;;
4698;SDS011;33708;49.466;11.176;2023-08-12T08:38:20;4.03;;;2.67;;
4698;SDS011;33708;49.466;11.176;2023-08-12T08:40:46;5.30;;;2.70;;
4698;SDS011;33708;49.466;11.176;2023-08-12T08:43:15;4.77;;;2.40;;
4698;SDS011;33708;49.466;11.176;2023-08-12T08:45:48;3.33;;;2.20;;
4698;SDS011;33708;49.466;11.176;2023-08-12T08:48:17;3.73;;;2.30;;
4698;SDS011;33708;49.466;11.176;2023-08-12T08:50:45;3.30;;;2.20;;
4698;SDS011;33708;49.466;11.176;2023-08-12T08:53:11;3.37;;;2.33;;
4698;SDS011;33708;49.466;11.176;2023-08-12T08:55:39;4.27;;;2.23;;
4698;SDS011;33708;49.466;11.176;2023-08-12T08:58:08;4.80;;;2.20;;
4698;SDS011;33708;49.466;11.176;2023-08-12T09:00:33;3.83;;;2.23;;
4698;SDS011;33708;49.466;11.176;2023-08-12T09:03:01;5.37;;;2.27;;
4698;SDS011;33708;49.466;11.176;2023-08-12T09:05:28;5.77;;;2.57;;
4698;SDS011;33708;49.466;11.176;2023-08-12T09:07:55;3.60;;;2.40;;
4698;SDS011;33708;49.466;11.176;2023-08-12T09:10:21;4.33;;;2.63;;
4698;SDS011;33708;49.466;11.176;2023-08-12T09:12:51;5.43;;;2.67;;
4698;SDS011;33708;49.466;11.176;2023-08-12T09:15:18;5.93;;;2.20;;
4698;SDS011;33708;49.466;11.176;2023-08-12T09:17:44;7.67;;;2.77;;
4698;SDS011;33708;49.466;11.176;2023-08-12T09:20:09;3.30;;;2.20;;
4698;SDS011;33708;49.466;11.176;2023-08-12T09:22:39;4.00;;;2.80;;
4698;SDS011;33708;49.466;11.176;2023-08-12T09:25:06;3.60;;;2.57;;
4698;SDS011;33708;49.466;11.176;2023-08-12T09:27:32;7.20;;;2.57;;
4698;SDS011;33708;49.466;11.176;2023-08-12T09:29:58;7.17;;;2.43;;
4698;SDS011;33708;49.466;11.176;2023-08-12T09:32:27;4.97;;;2.50;;
4698;SDS011;33708;49.466;11.176;2023-08-12T09:34:54;3.10;;;2.17;;
4698;SDS011;33708;49.466;11.176;2023-08-12T09:37:20;3.50;;;2.30;;
4698;SDS011;33708;49.466;11.176;2023-08-12T09:39:47;4.17;;;2.50;;
4698;SDS011;33708;49.466;11.176;2023-08-12T09:42:14;9.50;;;2.67;;
4698;SDS011;33708;49.466;11.176;2023-08-12T09:44:40;3.17;;;2.23;;
4698;SDS011;33708;49.466;11.176;2023-08-12T09:47:07;4.50;;;2.87;;
4698;SDS011;33708;49.466;11.176;2023-08-12T09:49:36;5.43;;;2.87;;
4698;SDS011;33708;49.466;11.176;2023-08-12T09:52:03;9.47;;;2.40;;
4698;SDS011;33708;49.466;11.176;2023-08-12T09:54:32;4.73;;;2.67;;
4698;SDS011;33708;49.466;11.176;2023-08-12T09:57:00;5.30;;;2.60;;
4698;SDS011;33708;49.466;11.176;2023-08-12T09:59:29;9.57;;;2.73;;
4698;SDS011;33708;49.466;11.176;2023-08-12T10:02:03;4.77;;;2.50;;
4698;SDS011;33708;49.466;11.176;2023-08-12T10:04:35;5.47;;;2.50;;
4698;SDS011;33708;49.466;11.176;2023-08-12T10:07:04;4.30;;;2.60;;
4698;SDS011;33708;49.466;11.176;2023-08-12T10:09:32;8.00;;;2.83;;
4698;SDS011;33708;49.466;11.176;2023-08-12T10:11:58;7.50;;;2.40;;
4698;SDS011;33708;49.466;11.176;2023-08-12T10:14:25;3.97;;;2.60;;
4698;SDS011;33708;49.466;11.176;2023-08-12T10:16:51;4.00;;;2.93;;
4698;SDS011;33708;49.466;11.176;2023-08-12T10:19:18;4.23;;;2.80;;
4698;SDS011;33708;49.466;11.176;2023-08-12T10:21:46;6.80;;;2.80;;
4698;SDS011;33708;49.466;11.176;2023-08-12T10:24:14;5.20;;;2.63;;
4698;SDS011;33708;49.466;11.176;2023-08-12T10:26:42;5.20;;;3.03;;
4698;SDS011;33708;49.466;11.176;2023-08-12T10:29:08;4.30;;;2.30;;
4698;SDS011;33708;49.466;11.176;2023-08-12T10:31:34;3.17;;;2.30;;
4698;SDS011;33708;49.466;11.176;2023-08-12T10:34:00;5.97;;;2.70;;
4698;SDS011;33708;49.466;11.176;2023-08-12T10:36:26;4.83;;;2.20;;
4698;SDS011;33708;49.466;11.176;2023-08-12T10:38:52;8.33;;;2.50;;
4698;SDS011;33708;49.466;11.176;2023-08-12T10:41:19;5.73;;;2.70;;
4698;SDS011;33708;49.466;11.176;2023-08-12T10:43:52;5.63;;;2.70;;
4698;SDS011;33708;49.466;11.176;2023-08-12T10:46:23;4.50;;;2.80;;
4698;SDS011;33708;49.466;11.176;2023-08-12T10:49:02;6.53;;;2.60;;
4698;SDS011;33708;49.466;11.176;2023-08-12T10:51:44;4.57;;;2.90;;
4698;SDS011;33708;49.466;11.176;2023-08-12T10:54:16;4.13;;;2.60;;
4698;SDS011;33708;49.466;11.176;2023-08-12T11:04:54;4.20;;;2.60;;
4698;SDS011;33708;49.466;11.176;2023-08-12T11:07:21;7.43;;;2.27;;
4698;SDS011;33708;49.466;11.176;2023-08-12T11:09:55;3.70;;;2.40;;
4698;SDS011;33708;49.466;11.176;2023-08-12T11:12:29;5.37;;;3.00;;
4698;SDS011;33708;49.466;11.176;2023-08-12T11:14:58;4.43;;;2.93;;
4698;SDS011;33708;49.466;11.176;2023-08-12T11:17:29;5.30;;;2.57;;
4698;SDS011;33708;49.466;11.176;2023-08-12T11:19:57;5.00;;;3.17;;
4698;SDS011;33708;49.466;11.176;2023-08-12T11:22:23;6.30;;;2.80;;
4698;SDS011;33708;49.466;11.176;2023-08-12T11:24:50;5.43;;;2.80;;
4698;SDS011;33708;49.466;11.176;2023-08-12T11:27:16;4.10;;;2.63;;
4698;SDS011;33708;49.466;11.176;2023-08-12T11:29:43;4.20;;;2.70;;
4698;SDS011;33708;49.466;11.176;2023-08-12T11:32:09;3.90;;;2.70;;
4698;SDS011;33708;49.466;11.176;2023-08-12T11:34:35;4.80;;;3.13;;
4698;SDS011;33708;49.466;11.176;2023-08-12T11:37:02;4.20;;;3.00;;
4698;SDS011;33708;49.466;11.176;2023-08-12T11:39:28;3.73;;;2.83;;
4698;SDS011;33708;49.466;11.176;2023-08-12T11:41:55;4.50;;;2.80;;
4698;SDS011;33708;49.466;11.176;2023-08-12T11:44:22;4.10;;;2.90;;
4698;SDS011;33708;49.466;11.176;2023-08-12T11:46:48;3.93;;;2.90;;
4698;SDS011;33708;49.466;11.176;2023-08-12T11:49:14;4.30;;;3.10;;
4698;SDS011;33708;49.466;11.176;2023-08-12T11:51:40;4.60;;;2.97;;
4698;SDS011;33708;49.466;11.176;2023-08-12T11:54:07;4.47;;;3.40;;
4698;SDS011;33708;49.466;11.176;2023-08-12T11:56:33;6.30;;;3.17;;
4698;SDS011;33708;49.466;11.176;2023-08-12T11:58:59;3.60;;;2.80;;
4698;SDS011;33708;49.466;11.176;2023-08-12T12:01:24;5.80;;;3.13;;
4698;SDS011;33708;49.466;11.176;2023-08-12T12:03:53;5.70;;;3.00;;
4698;SDS011;33708;49.466;11.176;2023-08-12T12:06:32;4.67;;;3.00;;
4698;SDS011;33708;49.466;11.176;2023-08-12T12:09:04;6.10;;;2.87;;
4698;SDS011;33708;49.466;11.176;2023-08-12T12:11:31;5.53;;;3.30;;
4698;SDS011;33708;49.466;11.176;2023-08-12T12:14:03;3.67;;;2.67;;
4698;SDS011;33708;49.466;11.176;2023-08-12T12:16:39;5.77;;;3.30;;
4698;SDS011;33708;49.466;11.176;2023-08-12T12:19:12;5.80;;;3.90;;
4698;SDS011;33708;49.466;11.176;2023-08-12T12:21:45;4.77;;;3.30;;
4698;SDS011;33708;49.466;11.176;2023-08-12T12:24:12;10.00;;;3.17;;
4698;SDS011;33708;49.466;11.176;2023-08-12T12:26:38;6.13;;;2.80;;
4698;SDS011;33708;49.466;11.176;2023-08-12T12:29:04;4.70;;;3.40;;
4698;SDS011;33708;49.466;11.176;2023-08-12T12:31:33;9.60;;;3.70;;
4698;SDS011;33708;49.466;11.176;2023-08-12T12:34:03;4.33;;;3.40;;
4698;SDS011;33708;49.466;11.176;2023-08-12T12:36:34;4.07;;;2.90;;
4698;SDS011;33708;49.466;11.176;2023-08-12T12:39:01;5.00;;;2.80;;
4698;SDS011;33708;49.466;11.176;2023-08-12T12:41:28;6.03;;;3.10;;
4698;SDS011;33708;49.466;11.176;2023-08-12T12:43:53;6.47;;;3.40;;
4698;SDS011;33708;49.466;11.176;2023-08-12T12:46:19;4.70;;;3.03;;
4698;SDS011;33708;49.466;11.176;2023-08-12T12:48:45;4.23;;;3.10;;
4698;SDS011;33708;49.466;11.176;2023-08-12T12:51:11;5.63;;;3.50;;
4698;SDS011;33708;49.466;11.176;2023-08-12T12:53:38;5.23;;;3.20;;
4698;SDS011;33708;49.466;11.176;2023-08-12T12:56:04;5.07;;;2.80;;
4698;SDS011;33708;49.466;11.176;2023-08-12T12:58:30;4.83;;;3.40;;
4698;SDS011;33708;49.466;11.176;2023-08-12T13:00:58;4.53;;;3.17;;
4698;SDS011;33708;49.466;11.176;2023-08-12T13:03:24;7.70;;;3.57;;
4698;SDS011;33708;49.466;11.176;2023-08-12T13:05:50;5.07;;;2.77;;
4698;SDS011;33708;49.466;11.176;2023-08-12T13:08:15;4.60;;;3.33;;
4698;SDS011;33708;49.466;11.176;2023-08-12T13:10:41;7.83;;;2.90;;
4698;SDS011;33708;49.466;11.176;2023-08-12T13:13:07;4.50;;;3.00;;
4698;SDS011;33708;49.466;11.176;2023-08-12T13:15:32;4.90;;;3.20;;
4698;SDS011;33708;49.466;11.176;2023-08-12T13:17:58;4.03;;;2.80;;
4698;SDS011;33708;49.466;11.176;2023-08-12T13:20:24;4.87;;;3.30;;
4698;SDS011;33708;49.466;11.176;2023-08-12T13:22:49;6.10;;;3.30;;
4698;SDS011;33708;49.466;11.176;2023-08-12T13:25:15;11.50;;;3.50;;
4698;SDS011;33708;49.466;11.176;2023-08-12T13:27:40;7.30;;;3.40;;
4698;SDS011;33708;49.466;11.176;2023-08-12T13:30:07;4.53;;;2.90;;
4698;SDS011;33708;49.466;11.176;2023-08-12T13:32:32;10.60;;;3.40;;
4698;SDS011;33708;49.466;11.176;2023-08-12T13:34:58;12.17;;;3.23;;
4698;SDS011;33708;49.466;11.176;2023-08-12T13:37:24;7.10;;;3.60;;
4698;SDS011;33708;49.466;11.176;2023-08-12T13:39:49;4.43;;;2.90;;
4698;SDS011;33708;49.466;11.176;2023-08-12T13:42:15;6.43;;;2.67;;
4698;SDS011;33708;49.466;11.176;2023-08-12T13:44:40;5.20;;;3.40;;
4698;SDS011;33708;49.466;11.176;2023-08-12T13:47:06;5.20;;;3.33;;
4698;SDS011;33708;49.466;11.176;2023-08-12T13:49:31;4.80;;;2.90;;
4698;SDS011;33708;49.466;11.176;2023-08-12T13:51:57;7.47;;;2.40;;
4698;SDS011;33708;49.466;11.176;2023-08-12T13:54:24;5.33;;;3.13;;
4698;SDS011;33708;49.466;11.176;2023-08-12T13:56:50;10.03;;;3.10;;
4698;SDS011;33708;49.466;11.176;2023-08-12T13:59:15;5.37;;;2.77;;
4698;SDS011;33708;49.466;11.176;2023-08-12T14:01:41;5.53;;;2.63;;
4698;SDS011;33708;49.466;11.176;2023-08-12T14:04:07;4.60;;;2.73;;
4698;SDS011;33708;49.466;11.176;2023-08-12T14:06:32;5.77;;;3.47;;
4698;SDS011;33708;49.466;11.176;2023-08-12T14:08:58;7.50;;;3.57;;
4698;SDS011;33708;49.466;11.176;2023-08-12T14:11:23;7.13;;;3.37;;
4698;SDS011;33708;49.466;11.176;2023-08-12T14:13:49;4.73;;;3.13;;
4698;SDS011;33708;49.466;11.176;2023-08-12T14:16:14;9.93;;;3.47;;
4698;SDS011;33708;49.466;11.176;2023-08-12T14:18:40;10.53;;;2.93;;
4698;SDS011;33708;49.466;11.176;2023-08-12T14:21:05;9.30;;;2.70;;
4698;SDS011;33708;49.466;11.176;2023-08-12T14:23:31;3.87;;;1.73;;
4698;SDS011;33708;49.466;11.176;2023-08-12T14:25:57;5.20;;;2.10;;
4698;SDS011;33708;49.466;11.176;2023-08-12T14:28:22;7.83;;;2.10;;
4698;SDS011;33708;49.466;11.176;2023-08-12T14:30:48;3.60;;;1.50;;
4698;SDS011;33708;49.466;11.176;2023-08-12T14:33:14;11.00;;;2.20;;
4698;SDS011;33708;49.466;11.176;2023-08-12T14:35:39;10.07;;;1.80;;
4698;SDS011;33708;49.466;11.176;2023-08-12T14:38:05;4.70;;;1.50;;
4698;SDS011;33708;49.466;11.176;2023-08-12T14:40:31;3.53;;;1.57;;
4698;SDS011;33708;49.466;11.176;2023-08-12T14:42:56;5.27;;;1.87;;
4698;SDS011;33708;49.466;11.176;2023-08-12T14:45:22;8.00;;;1.60;;
4698;SDS011;33708;49.466;11.176;2023-08-12T14:47:48;5.20;;;1.50;;
4698;SDS011;33708;49.466;11.176;2023-08-12T14:50:13;4.30;;;1.90;;